XS45 weather

Mustang Island Heliport
Port Aransas, Texas, United States

Public forecast

Using degrees Fahrenheit for public forecast. Weather courtesy of forecast.io.

Closest aviation weather report (METAR) to Mustang Island Heliport

Closest report is Corpus Christi Naval Air Station/Truax Field, 6.4 nm (11.9 km) WSW. Retrieved 2019/12/12 00:41 UTC (0 seconds ago):

KNGP 120041Z 11003KT 10SM SCT025 BKN032 11/07 A3041 RMK AO2 T01060072

Closest aviation forecast (TAF) to Mustang Island Heliport

Forecast is more than 12 hours old.

Closest forecast is Corpus Christi Naval Air Station/Truax Field, 6.4 nm (11.9 km) WSW. Retrieved 2015/05/10 23:09 UTC (5 years ago):

TAF KNGP 092300Z 0923/1023 14020G30KT 9999 FEW025 SCT150 QNH2967INS TEMPO 0923/1003 BKN010 OVC030 BECMG 1003/1005 14016G22KT 8000 BR OVC010 QNH2969INS BECMG 1013/1015 15018G28KT BKN020 QNH2970INS AUTOMATED SENSOR METWATCH 0923 TIL 1111 TX30/0923Z TN25/1006Z